createdAt,value
2019-05-22T00:02:01.284Z,99.90
2019-05-22T00:04:36.152Z,99.90
2019-05-22T00:07:08.161Z,99.90
2019-05-22T00:09:39.780Z,99.90
2019-05-22T00:12:17.511Z,99.90
2019-05-22T00:14:47.177Z,99.90
2019-05-22T00:17:18.014Z,99.90
2019-05-22T00:19:47.837Z,99.90
2019-05-22T00:22:24.025Z,99.90
2019-05-22T00:24:54.548Z,99.90
2019-05-22T00:27:26.561Z,99.90
2019-05-22T00:29:57.421Z,99.90
2019-05-22T00:32:28.438Z,99.90
2019-05-22T00:34:58.252Z,99.90
2019-05-22T00:37:27.421Z,99.90
2019-05-22T00:39:58.046Z,99.90
2019-05-22T00:42:27.941Z,99.90
2019-05-22T00:44:58.836Z,99.90
2019-05-22T00:47:30.023Z,99.90
2019-05-22T00:50:03.968Z,99.90
2019-05-22T00:53:01.856Z,99.90
2019-05-22T00:55:40.141Z,99.90
2019-05-22T00:58:26.801Z,99.90
2019-05-22T01:01:14.468Z,99.90
2019-05-22T01:03:46.041Z,99.90
2019-05-22T01:06:16.523Z,99.90
2019-05-22T01:08:48.275Z,99.90
2019-05-22T01:11:20.637Z,99.90
2019-05-22T01:13:50.356Z,99.90
2019-05-22T01:16:20.943Z,99.90
2019-05-22T01:18:49.868Z,99.90
2019-05-22T01:21:21.615Z,99.90
2019-05-22T01:23:52.485Z,99.90
2019-05-22T01:26:22.778Z,99.90
2019-05-22T01:28:53.105Z,99.90
2019-05-22T01:31:27.424Z,99.90
2019-05-22T01:34:05.633Z,99.90
2019-05-22T01:36:40.422Z,99.90
2019-05-22T01:39:28.173Z,99.90
2019-05-22T01:41:58.956Z,99.90
2019-05-22T01:44:30.546Z,99.90
2019-05-22T01:47:06.605Z,99.90
2019-05-22T01:49:40.805Z,99.90
2019-05-22T01:52:11.522Z,99.90
2019-05-22T01:54:40.601Z,99.90
2019-05-22T01:57:10.717Z,99.90
2019-05-22T01:59:41.598Z,99.90
2019-05-22T02:02:12.646Z,99.90
2019-05-22T02:04:42.450Z,99.90
2019-05-22T02:07:11.801Z,99.90
2019-05-22T02:09:44.177Z,99.90
2019-05-22T02:12:25.236Z,99.90
2019-05-22T02:14:56.098Z,99.90
2019-05-22T02:17:33.092Z,99.90
2019-05-22T02:20:04.336Z,99.90
2019-05-22T02:22:34.297Z,99.90
2019-05-22T02:25:05.277Z,99.90
2019-05-22T02:27:36.370Z,99.90
2019-05-22T02:30:08.101Z,99.90
2019-05-22T02:32:37.870Z,99.90
2019-05-22T02:35:09.405Z,99.90
2019-05-22T02:37:39.184Z,99.90
2019-05-22T02:40:15.215Z,99.90
2019-05-22T02:42:44.999Z,99.90
2019-05-22T02:45:14.343Z,99.90
2019-05-22T02:47:45.306Z,99.90
2019-05-22T02:50:16.878Z,99.90
2019-05-22T02:52:46.834Z,99.90
2019-05-22T02:55:16.777Z,99.90
2019-05-22T02:57:46.540Z,99.90
2019-05-22T03:00:16.797Z,99.90
2019-05-22T03:02:52.026Z,99.90
2019-05-22T03:05:22.775Z,99.90
2019-05-22T03:07:52.753Z,99.90
2019-05-22T03:10:25.235Z,99.90
2019-05-22T03:12:54.187Z,99.90
2019-05-22T03:15:25.833Z,99.90
2019-05-22T03:18:01.657Z,99.90
2019-05-22T03:20:33.911Z,99.90
2019-05-22T03:23:41.941Z,99.90
2019-05-22T03:26:13.348Z,99.90
2019-05-22T03:28:42.869Z,99.90
2019-05-22T03:31:12.714Z,99.90
2019-05-22T03:33:42.891Z,99.90
2019-05-22T03:36:20.942Z,99.90
2019-05-22T03:38:50.605Z,99.90
2019-05-22T03:41:20.765Z,99.90
2019-05-22T03:43:51.085Z,99.90
2019-05-22T03:46:37.998Z,99.90
2019-05-22T03:49:27.492Z,99.90
2019-05-22T03:51:40.273Z,99.90
2019-05-22T03:54:11.524Z,99.90
2019-05-22T03:56:43.226Z,99.90
2019-05-22T03:59:12.534Z,99.90
2019-05-22T04:01:42.824Z,99.90
2019-05-22T04:04:13.850Z,99.90
2019-05-22T04:06:45.138Z,99.90
2019-05-22T04:09:24.895Z,99.90
2019-05-22T04:12:13.313Z,99.90
2019-05-22T04:14:42.745Z,99.90
2019-05-22T04:17:15.012Z,99.90
2019-05-22T04:19:49.914Z,99.90
2019-05-22T04:22:17.504Z,99.90
2019-05-22T04:24:48.978Z,99.90
2019-05-22T04:27:18.709Z,99.90
2019-05-22T04:29:49.855Z,99.90
2019-05-22T04:32:26.698Z,99.90
2019-05-22T04:34:55.906Z,99.90
2019-05-22T04:37:25.090Z,99.90
2019-05-22T04:39:55.951Z,99.90
2019-05-22T04:42:26.958Z,99.90
2019-05-22T04:45:10.864Z,99.90
2019-05-22T04:47:40.422Z,99.90
2019-05-22T04:50:10.704Z,99.90
2019-05-22T04:52:39.766Z,99.90
2019-05-22T04:55:11.221Z,99.90
2019-05-22T04:57:40.862Z,99.90
2019-05-22T05:00:11.463Z,99.90
2019-05-22T05:02:41.069Z,99.90
2019-05-22T05:05:10.997Z,99.90
2019-05-22T05:07:41.762Z,99.90
2019-05-22T05:10:11.840Z,99.90
2019-05-22T05:12:42.308Z,99.90
2019-05-22T05:15:12.184Z,99.90
2019-05-22T05:17:41.080Z,99.90
2019-05-22T05:20:22.088Z,99.90
2019-05-22T05:22:43.339Z,99.90
2019-05-22T05:25:12.974Z,99.90
2019-05-22T05:27:42.256Z,99.90
2019-05-22T05:30:13.083Z,99.90
2019-05-22T05:32:43.045Z,99.90
2019-05-22T05:35:12.707Z,99.90
2019-05-22T05:37:42.781Z,99.90
2019-05-22T05:40:33.672Z,99.90
2019-05-22T05:43:03.552Z,99.90
2019-05-22T05:45:33.771Z,99.90
2019-05-22T05:48:06.305Z,99.90
2019-05-22T05:50:40.179Z,99.90
2019-05-22T05:53:16.217Z,99.90
2019-05-22T05:56:09.374Z,99.90
2019-05-22T05:58:38.816Z,99.90
2019-05-22T06:01:22.471Z,99.90
2019-05-22T06:03:51.548Z,99.90
2019-05-22T06:07:12.032Z,99.90
2019-05-22T06:09:41.874Z,99.90
2019-05-22T06:12:15.865Z,99.90
2019-05-22T06:14:45.515Z,99.90
2019-05-22T06:17:52.679Z,99.90
2019-05-22T06:20:22.981Z,99.90
2019-05-22T06:23:44.343Z,99.90
2019-05-22T06:26:38.266Z,99.90
2019-05-22T06:29:08.103Z,99.90
2019-05-22T06:31:49.545Z,99.90
2019-05-22T06:34:18.754Z,99.90
2019-05-22T06:36:47.708Z,99.90
2019-05-22T06:39:17.360Z,99.90
2019-05-22T06:41:48.340Z,99.90
2019-05-22T06:44:36.257Z,99.90
2019-05-22T06:47:08.299Z,99.90
2019-05-22T06:49:49.041Z,99.90
2019-05-22T06:52:18.981Z,99.90
2019-05-22T06:54:48.329Z,99.90
2019-05-22T06:57:34.879Z,99.90
2019-05-22T07:00:15.369Z,99.90
2019-05-22T07:02:45.413Z,99.90
2019-05-22T07:05:15.075Z,99.90
2019-05-22T07:07:44.341Z,99.90
2019-05-22T07:10:14.521Z,99.90
2019-05-22T07:12:44.162Z,99.90
2019-05-22T07:15:50.481Z,99.90
2019-05-22T07:18:29.761Z,99.90
2019-05-22T07:20:59.623Z,99.90
2019-05-22T07:23:33.446Z,99.90
2019-05-22T07:26:03.464Z,99.90
2019-05-22T07:28:33.345Z,99.90
2019-05-22T07:31:04.284Z,99.90
2019-05-22T07:33:33.785Z,99.90
2019-05-22T07:36:15.945Z,99.90
2019-05-22T07:38:35.108Z,99.90
2019-05-22T07:41:06.021Z,99.90
2019-05-22T07:43:35.242Z,99.90
2019-05-22T07:46:04.130Z,99.90
2019-05-22T07:48:33.657Z,99.90
2019-05-22T07:51:03.343Z,99.90
2019-05-22T07:53:32.295Z,99.90
2019-05-22T07:56:05.053Z,99.90
2019-05-22T07:58:36.163Z,99.90
2019-05-22T08:01:06.379Z,99.90
2019-05-22T08:03:37.265Z,99.90
2019-05-22T08:06:08.442Z,99.90
2019-05-22T08:08:39.614Z,99.90
2019-05-22T08:11:09.447Z,99.90
2019-05-22T08:13:39.939Z,99.90
2019-05-22T08:16:10.475Z,99.90
2019-05-22T08:18:40.391Z,99.90
2019-05-22T08:21:10.766Z,99.90
2019-05-22T08:23:39.899Z,99.90
2019-05-22T08:26:10.837Z,99.90
2019-05-22T08:28:40.832Z,99.90
2019-05-22T08:31:10.882Z,99.90
2019-05-22T08:33:40.108Z,99.90
2019-05-22T08:36:09.453Z,99.90
2019-05-22T08:38:39.229Z,99.90
2019-05-22T08:41:09.958Z,99.90
2019-05-22T08:44:03.346Z,99.90
2019-05-22T08:46:18.492Z,99.90
2019-05-22T08:48:49.314Z,99.90
2019-05-22T08:51:19.127Z,99.90
2019-05-22T08:53:48.983Z,99.90
2019-05-22T08:56:19.056Z,99.90
2019-05-22T08:58:48.421Z,99.90
2019-05-22T09:01:17.383Z,99.90
2019-05-22T09:03:47.472Z,99.90
2019-05-22T09:16:45.732Z,99.90
2019-05-22T09:19:37.008Z,99.90
2019-05-22T09:37:33.124Z,99.90
2019-05-22T09:40:24.515Z,99.90
2019-05-22T09:43:13.075Z,99.90
2019-05-22T09:45:58.729Z,99.90
2019-05-22T09:48:31.753Z,99.90
2019-05-22T09:56:54.821Z,99.90
2019-05-22T10:26:04.580Z,99.20
2019-05-22T10:31:26.480Z,97.50
2019-05-22T10:33:56.173Z,98.00
2019-05-22T10:36:25.661Z,97.30
2019-05-22T14:14:47.021Z,85.00
2019-05-22T14:17:16.839Z,85.80
2019-05-22T14:19:46.688Z,83.50
2019-05-22T14:22:16.507Z,84.60
2019-05-22T14:24:46.122Z,83.80
2019-05-22T14:27:15.403Z,84.10
2019-05-22T14:29:48.388Z,84.70
2019-05-22T14:32:18.827Z,84.30
2019-05-22T14:34:51.051Z,82.80
2019-05-22T14:37:21.957Z,83.20
2019-05-22T14:39:51.931Z,82.70
2019-05-22T14:42:23.279Z,82.00
2019-05-22T14:44:59.963Z,83.30
2019-05-22T14:47:37.616Z,80.90
2019-05-22T14:50:09.597Z,83.20
2019-05-22T14:52:39.992Z,82.50
2019-05-22T14:55:10.826Z,82.20
2019-05-22T14:57:41.088Z,82.00
2019-05-22T15:00:12.064Z,83.80
2019-05-22T15:02:41.576Z,84.50
2019-05-22T15:05:12.938Z,82.60
2019-05-22T15:07:42.492Z,82.40
2019-05-22T15:10:16.761Z,83.50
2019-05-22T15:12:43.871Z,84.20
2019-05-22T15:15:13.752Z,81.10
2019-05-22T15:17:43.237Z,80.10
2019-05-22T15:20:17.048Z,79.40
2019-05-22T15:22:46.318Z,81.10
2019-05-22T15:25:16.481Z,79.70
2019-05-22T15:27:46.199Z,81.50
2019-05-22T15:30:15.680Z,80.80
2019-05-22T15:32:46.023Z,81.70
2019-05-22T15:35:15.467Z,82.70
2019-05-22T15:37:46.472Z,81.90
2019-05-22T15:40:17.592Z,82.40
2019-05-22T15:42:47.530Z,81.90
2019-05-22T15:45:21.924Z,81.90
2019-05-22T15:47:56.309Z,80.90
2019-05-22T15:50:27.546Z,78.80
2019-05-22T15:53:01.101Z,79.80
2019-05-22T15:55:34.211Z,79.00
2019-05-22T15:58:05.417Z,78.30
2019-05-22T16:00:37.213Z,77.50
2019-05-22T16:03:12.517Z,78.50
2019-05-22T16:05:43.565Z,77.20
2019-05-22T16:08:15.728Z,77.70
2019-05-22T16:10:47.399Z,77.70
2019-05-22T16:13:20.404Z,78.70
2019-05-22T16:15:51.812Z,80.80
2019-05-22T16:18:24.644Z,80.60
2019-05-22T16:20:55.262Z,82.20
2019-05-22T16:23:25.661Z,81.00
2019-05-22T16:28:47.943Z,75.10
2019-05-22T16:31:19.596Z,76.40
2019-05-22T16:33:51.822Z,72.20
2019-05-22T16:36:23.021Z,73.30
2019-05-22T16:42:59.984Z,73.60
2019-05-22T16:45:30.863Z,73.80
2019-05-22T16:48:01.378Z,75.50
2019-05-22T16:50:31.380Z,76.80
2019-05-22T16:53:02.947Z,78.00
2019-05-22T16:55:32.833Z,79.30
2019-05-22T16:58:02.214Z,79.80
2019-05-22T17:00:32.271Z,81.40
2019-05-22T17:03:02.349Z,81.20
2019-05-22T17:05:31.801Z,82.80
2019-05-22T17:08:01.118Z,82.30
2019-05-22T17:10:31.100Z,83.50
2019-05-22T17:13:02.915Z,83.80
2019-05-22T17:15:33.875Z,83.40
2019-05-22T17:18:04.198Z,83.50
2019-05-22T17:20:33.807Z,84.40
2019-05-22T17:23:03.135Z,85.00
2019-05-22T17:25:32.818Z,85.60
2019-05-22T17:28:03.418Z,86.90
2019-05-22T17:30:34.906Z,87.90
2019-05-22T17:33:04.203Z,89.20
2019-05-22T17:35:34.242Z,89.70
2019-05-22T17:38:05.277Z,90.00
2019-05-22T17:40:36.533Z,90.30
2019-05-22T17:43:09.176Z,90.70
2019-05-22T17:45:40.149Z,90.90
2019-05-22T17:48:10.848Z,91.20
2019-05-22T17:50:39.862Z,91.90
2019-05-22T17:53:09.273Z,92.30
2019-05-22T17:55:39.192Z,92.60
2019-05-22T17:58:08.664Z,93.10
2019-05-22T18:00:42.603Z,93.20
2019-05-22T18:03:12.074Z,93.30
2019-05-22T18:05:41.979Z,93.70
2019-05-22T18:08:11.637Z,93.00
2019-05-22T18:10:42.873Z,93.50
2019-05-22T18:13:14.157Z,93.70
2019-05-22T18:15:43.786Z,93.50
2019-05-22T18:18:12.807Z,94.00
2019-05-22T18:20:44.271Z,93.70
2019-05-22T18:23:13.760Z,93.80
2019-05-22T18:25:44.066Z,94.40
2019-05-22T18:28:13.810Z,94.80
2019-05-22T18:30:43.766Z,94.30
2019-05-22T18:33:13.578Z,94.40
2019-05-22T18:35:42.704Z,94.60
2019-05-22T18:38:11.713Z,94.90
2019-05-22T18:40:41.059Z,95.00
2019-05-22T18:43:10.932Z,94.90
2019-05-22T18:45:40.898Z,95.50
2019-05-22T18:48:10.479Z,95.60
2019-05-22T18:50:39.921Z,95.80
2019-05-22T18:53:09.830Z,96.00
2019-05-22T18:55:39.504Z,95.90
2019-05-22T18:58:08.702Z,96.30
2019-05-22T19:00:37.780Z,97.00
2019-05-22T19:03:07.622Z,97.20
2019-05-22T19:05:37.520Z,97.60
2019-05-22T19:08:06.735Z,98.00
2019-05-22T19:10:35.800Z,97.20
2019-05-22T19:13:05.237Z,97.30
2019-05-22T19:15:34.329Z,97.50
2019-05-22T19:18:03.290Z,97.90
2019-05-22T19:20:32.334Z,98.40
2019-05-22T19:23:01.950Z,98.70
2019-05-22T19:25:31.061Z,98.40
2019-05-22T19:28:00.850Z,99.60
2019-05-22T19:30:30.917Z,99.90
2019-05-22T19:33:00.410Z,99.90
2019-05-22T19:35:29.902Z,99.90
2019-05-22T19:37:59.292Z,99.90
2019-05-22T19:40:28.988Z,99.90
2019-05-22T19:42:58.614Z,99.90
2019-05-22T19:45:30.889Z,99.90
2019-05-22T19:47:59.574Z,99.90
2019-05-22T19:50:29.118Z,99.90
2019-05-22T19:53:15.837Z,99.90
2019-05-22T19:55:31.318Z,99.90
2019-05-22T19:58:01.617Z,99.90
2019-05-22T20:00:31.699Z,99.90
2019-05-22T20:03:02.169Z,99.90
2019-05-22T20:05:33.234Z,99.90
2019-05-22T20:08:02.221Z,99.90
2019-05-22T20:10:32.108Z,99.90
2019-05-22T20:13:01.889Z,99.90
2019-05-22T20:15:31.298Z,99.90
2019-05-22T20:18:00.915Z,99.90
2019-05-22T20:20:30.930Z,99.90
2019-05-22T20:23:00.820Z,99.90
2019-05-22T20:25:30.339Z,99.90
2019-05-22T20:28:02.689Z,99.90
2019-05-22T20:30:33.019Z,99.90
2019-05-22T20:33:02.308Z,99.90
2019-05-22T20:35:32.638Z,99.90
2019-05-22T20:38:02.625Z,99.90
2019-05-22T20:40:32.481Z,99.90
2019-05-22T20:43:01.820Z,99.90
2019-05-22T20:45:30.661Z,99.90
2019-05-22T20:48:12.447Z,99.90
2019-05-22T20:50:41.583Z,99.90
2019-05-22T20:53:12.707Z,99.90
2019-05-22T20:55:42.520Z,99.90
2019-05-22T20:58:13.861Z,99.90
2019-05-22T21:00:43.619Z,99.90
2019-05-22T21:03:13.812Z,99.90
2019-05-22T21:05:44.681Z,99.90
2019-05-22T21:08:16.090Z,99.90
2019-05-22T21:10:48.143Z,99.90
2019-05-22T21:13:19.125Z,99.90
2019-05-22T21:15:49.610Z,99.90
2019-05-22T21:18:20.605Z,99.90
2019-05-22T21:20:55.111Z,99.90
2019-05-22T21:23:22.836Z,99.90
2019-05-22T21:25:52.319Z,99.90
2019-05-22T21:28:21.360Z,99.90
2019-05-22T21:30:51.911Z,99.90
2019-05-22T21:33:21.667Z,99.90
2019-05-22T21:35:50.626Z,99.90
2019-05-22T21:38:20.640Z,99.90
2019-05-22T21:40:50.788Z,99.90
2019-05-22T21:43:19.958Z,99.90
2019-05-22T21:45:49.343Z,99.90
2019-05-22T21:48:19.502Z,99.90
2019-05-22T21:50:48.468Z,99.90
2019-05-22T21:53:18.062Z,99.90
2019-05-22T21:55:47.465Z,99.90
2019-05-22T21:58:18.204Z,99.90
2019-05-22T22:01:21.533Z,99.90
2019-05-22T22:04:01.137Z,99.90
2019-05-22T22:06:33.155Z,99.90
2019-05-22T22:09:01.224Z,99.90
2019-05-22T22:11:31.638Z,99.90
2019-05-22T22:14:01.411Z,99.90
2019-05-22T22:16:30.796Z,99.90
2019-05-22T22:19:01.514Z,99.90
2019-05-22T22:21:30.681Z,99.90
2019-05-22T22:23:59.858Z,99.90
2019-05-22T22:26:29.013Z,99.90
2019-05-22T22:28:58.096Z,99.90
2019-05-22T22:31:29.694Z,99.90
2019-05-22T22:34:06.941Z,99.90
2019-05-22T22:36:36.890Z,99.90
2019-05-22T22:39:10.435Z,99.90
2019-05-22T22:41:39.221Z,99.90
2019-05-22T22:44:10.282Z,99.90
2019-05-22T22:46:45.763Z,99.90
2019-05-22T22:49:18.493Z,99.90
2019-05-22T22:51:48.902Z,99.90
2019-05-22T22:54:20.192Z,99.90
2019-05-22T22:56:49.457Z,99.90
2019-05-22T22:59:19.290Z,99.90
2019-05-22T23:01:52.853Z,99.90
2019-05-22T23:04:23.790Z,99.90
2019-05-22T23:06:54.586Z,99.90
2019-05-22T23:09:25.225Z,99.90
2019-05-22T23:11:55.215Z,99.90
2019-05-22T23:14:25.669Z,99.90
2019-05-22T23:17:13.777Z,99.90
2019-05-22T23:19:46.592Z,99.90
2019-05-22T23:22:20.299Z,99.90
2019-05-22T23:24:51.946Z,99.90
2019-05-22T23:27:23.269Z,99.90
2019-05-22T23:29:54.014Z,99.90
2019-05-22T23:32:23.936Z,99.90
2019-05-22T23:34:53.295Z,99.90
2019-05-22T23:37:23.905Z,99.90
2019-05-22T23:39:57.018Z,99.90
2019-05-22T23:42:31.260Z,99.90
2019-05-22T23:45:02.618Z,99.90
2019-05-22T23:47:32.658Z,99.90
2019-05-22T23:50:02.458Z,99.90
2019-05-22T23:52:32.394Z,99.90
2019-05-22T23:55:02.588Z,99.90
2019-05-22T23:57:31.992Z,99.90
